Time;durP1;ratioP1;P1;durP2;ratioP2;P2;SDS_P1;SDS_P2;PMS_P1;PMS_P2;Temp;Humidity;BMP_temperature;BMP_pressure;BME280_temperature;BME280_humidity;BME280_pressure;Samples;Min_cycle;Max_cycle;Signal;HPM_P1;HPM_P2
2022/05/20 00:02:21;;;;;;;1.70;1.70;;;23.20;70.40;;;;;;5048720;28;44248;-71
2022/05/20 00:04:49;;;;;;;1.73;1.73;;;23.20;70.30;;;;;;5048486;28;43846;-70
2022/05/20 00:07:17;;;;;;;1.63;1.63;;;23.00;70.50;;;;;;5030526;28;44354;-71
2022/05/20 00:09:45;;;;;;;1.53;1.53;;;23.00;70.60;;;;;;5049091;28;43477;-71
2022/05/20 00:12:14;;;;;;;1.90;1.90;;;22.90;70.20;;;;;;5030977;28;44069;-70
2022/05/20 00:14:42;;;;;;;1.50;1.50;;;22.80;70.20;;;;;;5048612;28;43764;-71
2022/05/20 00:17:10;;;;;;;1.53;1.53;;;22.80;71.10;;;;;;5048204;28;44157;-70
2022/05/20 00:19:38;;;;;;;1.90;1.90;;;22.80;72.50;;;;;;5048443;28;44402;-71
2022/05/20 00:22:06;;;;;;;1.60;1.60;;;22.90;72.20;;;;;;5048866;28;43436;-70
2022/05/20 00:25:45;;;;;;;1.60;1.60;;;23.00;71.30;;;;;;5048329;28;44068;-71
2022/05/20 00:27:23;;;;;;;1.67;1.67;;;23.00;71.10;;;;;;5048058;28;43816;-70
2022/05/20 00:29:51;;;;;;;1.70;1.70;;;23.00;70.70;;;;;;5029943;28;43404;-71
2022/05/20 00:32:19;;;;;;;1.53;1.53;;;23.00;70.90;;;;;;5048605;28;43858;-71
2022/05/20 00:34:47;;;;;;;1.73;1.73;;;22.90;71.00;;;;;;5030104;28;46482;-70
2022/05/20 00:37:15;;;;;;;1.70;1.70;;;22.80;70.30;;;;;;5048504;28;43961;-71
2022/05/20 00:39:43;;;;;;;1.60;1.60;;;22.80;70.50;;;;;;5048507;28;43956;-71
2022/05/20 00:42:13;;;;;;;1.87;1.87;;;22.70;70.40;;;;;;5048256;28;43980;-71
2022/05/20 00:44:42;;;;;;;1.67;1.67;;;22.70;70.80;;;;;;5048025;28;43981;-70
2022/05/20 00:47:11;;;;;;;1.50;1.50;;;22.70;72.60;;;;;;5047666;28;44003;-70
2022/05/20 00:49:41;;;;;;;1.70;1.70;;;22.80;72.60;;;;;;5048360;28;43942;-70
2022/05/20 00:52:09;;;;;;;1.80;1.80;;;22.90;71.80;;;;;;5048663;28;44304;-71
2022/05/20 00:54:40;;;;;;;2.30;1.87;;;23.10;71.20;;;;;;5047978;28;43906;-70
2022/05/20 00:57:11;;;;;;;1.80;1.80;;;23.30;70.40;;;;;;5047623;28;43393;-70
2022/05/20 00:59:40;;;;;;;1.60;1.60;;;23.40;70.10;;;;;;5029623;28;43329;-70
2022/05/20 01:02:10;;;;;;;1.80;1.80;;;23.30;69.70;;;;;;5047879;28;43845;-70
2022/05/20 01:04:38;;;;;;;1.90;1.90;;;23.20;69.70;;;;;;5047561;28;43552;-70
2022/05/20 01:07:07;;;;;;;1.60;1.60;;;23.10;70.00;;;;;;5047563;28;43954;-72
2022/05/20 01:09:36;;;;;;;1.70;1.70;;;23.10;70.40;;;;;;5047633;28;43896;-72
2022/05/20 01:12:04;;;;;;;1.73;1.73;;;23.00;70.20;;;;;;5048079;28;43993;-71
2022/05/20 01:14:32;;;;;;;1.80;1.80;;;22.90;72.00;;;;;;5047978;28;43900;-71
2022/05/20 01:17:00;;;;;;;1.70;1.70;;;23.00;71.90;;;;;;5046993;28;43906;-71
2022/05/20 01:19:35;;;;;;;1.80;1.80;;;23.10;71.30;;;;;;5047505;28;43657;-70
2022/05/20 01:22:03;;;;;;;2.03;1.93;;;23.20;70.90;;;;;;5047695;28;43961;-71
2022/05/20 01:24:33;;;;;;;1.60;1.60;;;23.10;70.50;;;;;;5047348;28;44015;-71
2022/05/20 01:27:01;;;;;;;1.70;1.70;;;23.10;70.30;;;;;;5047130;28;43914;-71
2022/05/20 01:29:29;;;;;;;1.77;1.77;;;23.00;70.80;;;;;;5047515;28;43921;-71
2022/05/20 01:31:56;;;;;;;1.77;1.77;;;22.90;70.30;;;;;;5047850;28;43552;-72
2022/05/20 01:34:24;;;;;;;1.90;1.90;;;22.80;70.20;;;;;;5028735;28;44162;-71
2022/05/20 01:36:52;;;;;;;1.67;1.67;;;22.80;70.30;;;;;;5047090;28;44008;-70
2022/05/20 01:39:21;;;;;;;2.00;2.00;;;22.70;70.40;;;;;;5047200;28;43910;-72
2022/05/20 01:41:52;;;;;;;1.83;1.83;;;22.70;72.40;;;;;;5047184;28;43892;-71
2022/05/20 01:44:23;;;;;;;1.60;1.60;;;22.80;72.70;;;;;;5047094;28;44108;-72
2022/05/20 01:46:53;;;;;;;1.80;1.80;;;22.90;72.00;;;;;;5046720;28;43962;-71
2022/05/20 01:49:26;;;;;;;1.70;1.70;;;23.10;71.30;;;;;;5047137;28;43308;-71
2022/05/20 01:51:57;;;;;;;1.90;1.90;;;23.20;70.60;;;;;;5047400;28;43835;-71
2022/05/20 01:54:28;;;;;;;1.50;1.50;;;23.20;70.30;;;;;;5046858;28;44033;-71
2022/05/20 01:57:00;;;;;;;1.77;1.77;;;23.20;70.00;;;;;;5046764;28;44102;-71
2022/05/20 01:59:29;;;;;;;1.77;1.77;;;23.10;70.00;;;;;;5047128;28;43980;-71
2022/05/20 02:02:00;;;;;;;1.70;1.70;;;23.00;70.60;;;;;;5047087;28;43393;-72
2022/05/20 02:04:29;;;;;;;1.90;1.90;;;22.90;70.10;;;;;;5046692;28;44748;-71
2022/05/20 02:07:00;;;;;;;1.80;1.80;;;22.80;70.00;;;;;;5046579;28;43858;-70
2022/05/20 02:09:31;;;;;;;1.80;1.80;;;22.80;70.80;;;;;;5046954;28;43943;-71
2022/05/20 02:12:00;;;;;;;1.83;1.80;;;22.80;72.50;;;;;;5028942;28;44159;-71
2022/05/20 02:14:30;;;;;;;1.70;1.70;;;22.90;72.20;;;;;;5046618;28;44076;-71
2022/05/20 02:17:01;;;;;;;1.87;1.87;;;23.00;71.40;;;;;;5046454;28;43991;-72
2022/05/20 02:19:32;;;;;;;1.90;1.90;;;23.20;70.90;;;;;;5046631;28;43936;-70
2022/05/20 02:22:01;;;;;;;1.90;1.90;;;23.20;70.30;;;;;;5046944;28;43528;-71
2022/05/20 02:24:30;;;;;;;1.70;1.70;;;23.10;70.20;;;;;;5046343;28;44745;-71
2022/05/20 02:27:01;;;;;;;1.80;1.73;;;23.10;70.00;;;;;;5046407;28;43433;-71
2022/05/20 02:29:32;;;;;;;1.70;1.70;;;23.00;70.70;;;;;;5046892;28;43431;-70
2022/05/20 02:32:01;;;;;;;2.00;2.00;;;22.90;70.10;;;;;;5028533;28;44019;-70
2022/05/20 02:34:32;;;;;;;1.63;1.63;;;22.80;70.10;;;;;;5046357;28;44631;-71
2022/05/20 02:37:00;;;;;;;1.73;1.73;;;22.80;70.30;;;;;;5028031;28;45254;-70
2022/05/20 02:39:28;;;;;;;1.90;1.90;;;22.70;70.30;;;;;;5046595;28;43965;-71
2022/05/20 02:41:56;;;;;;;1.60;1.60;;;22.70;70.50;;;;;;5046545;28;43949;-71
2022/05/20 02:44:25;;;;;;;1.77;1.77;;;22.70;72.40;;;;;;5046036;28;43937;-70
2022/05/20 02:46:53;;;;;;;1.77;1.77;;;22.70;72.50;;;;;;5027849;28;45191;-71
2022/05/20 02:49:21;;;;;;;1.73;1.73;;;22.90;71.70;;;;;;5046361;28;43947;-71
2022/05/20 02:51:49;;;;;;;1.80;1.80;;;23.10;71.10;;;;;;5046570;28;43951;-71
2022/05/20 02:54:17;;;;;;;1.70;1.70;;;23.40;70.40;;;;;;5046261;28;43918;-71
2022/05/20 02:56:45;;;;;;;1.73;1.73;;;23.60;69.60;;;;;;5046213;28;43966;-71
2022/05/20 03:04:50;;;;;;;1.70;1.70;;;24.20;67.30;;;;;;5028026;28;44811;-71
2022/05/20 03:07:17;;;;;;;1.80;1.80;;;24.40;66.80;;;;;;5046248;28;43899;-71
2022/05/20 03:09:45;;;;;;;1.70;1.70;;;24.40;66.30;;;;;;5046236;28;43977;-70
2022/05/20 03:12:14;;;;;;;1.80;1.80;;;24.50;66.10;;;;;;5028448;28;44026;-72
2022/05/20 03:14:42;;;;;;;1.70;1.70;;;24.50;65.60;;;;;;5045752;28;43889;-72
2022/05/20 03:17:12;;;;;;;1.77;1.77;;;24.40;65.80;;;;;;5045656;28;43702;-71
2022/05/20 03:19:40;;;;;;;1.63;1.63;;;24.20;66.30;;;;;;5045702;28;43499;-72
2022/05/20 03:22:07;;;;;;;2.07;2.07;;;24.00;66.90;;;;;;5046492;28;43675;-71
2022/05/20 03:24:35;;;;;;;1.70;1.70;;;23.80;67.50;;;;;;5045593;28;43917;-70
2022/05/20 03:27:04;;;;;;;1.90;1.80;;;23.60;68.60;;;;;;5048408;28;43948;-72
2022/05/20 03:29:32;;;;;;;1.73;1.73;;;23.50;69.30;;;;;;5049380;28;43912;-72
2022/05/20 03:32:00;;;;;;;1.60;1.60;;;23.50;69.00;;;;;;5049473;28;43873;-70
2022/05/20 03:34:29;;;;;;;1.97;1.87;;;23.60;68.50;;;;;;5030430;28;46788;-71
2022/05/20 03:36:58;;;;;;;1.70;1.70;;;23.60;68.70;;;;;;5049205;28;43906;-71
2022/05/20 03:39:26;;;;;;;1.70;1.70;;;23.50;68.70;;;;;;5049201;28;43927;-71
2022/05/20 03:41:55;;;;;;;1.73;1.73;;;23.40;69.00;;;;;;5049176;28;44016;-70
2022/05/20 03:44:23;;;;;;;1.90;1.90;;;23.30;69.60;;;;;;5048623;28;43955;-71
2022/05/20 03:46:52;;;;;;;1.60;1.60;;;23.10;69.20;;;;;;5048523;28;44042;-71
2022/05/20 03:49:21;;;;;;;1.90;1.90;;;23.10;69.40;;;;;;5048972;28;44093;-71
2022/05/20 03:51:51;;;;;;;1.90;1.90;;;22.90;69.50;;;;;;5030140;28;44303;-71
2022/05/20 03:54:20;;;;;;;2.00;2.00;;;22.90;71.20;;;;;;5030739;28;47435;-72
2022/05/20 03:56:48;;;;;;;1.67;1.67;;;22.90;72.20;;;;;;5049100;28;44074;-71
2022/05/20 03:59:16;;;;;;;1.60;1.60;;;23.00;71.60;;;;;;5049325;28;43465;-71
2022/05/20 04:01:58;;;;;;;1.70;1.70;;;23.20;71.00;;;;;;5049399;28;43949;-72
2022/05/20 04:04:28;;;;;;;1.80;1.80;;;23.40;70.20;;;;;;5030712;28;46053;-70
2022/05/20 04:06:57;;;;;;;1.67;1.67;;;23.50;69.30;;;;;;5048761;28;43978;-70
2022/05/20 04:09:25;;;;;;;1.80;1.80;;;23.50;69.30;;;;;;5049257;28;43901;-71
2022/05/20 04:11:55;;;;;;;1.90;1.90;;;23.40;69.20;;;;;;5049343;28;44170;-71
2022/05/20 04:14:23;;;;;;;1.60;1.60;;;23.30;69.40;;;;;;5048492;28;44921;-72
2022/05/20 04:16:55;;;;;;;1.93;1.90;;;23.20;69.90;;;;;;5048924;28;43407;-71
2022/05/20 04:19:23;;;;;;;1.80;1.80;;;23.10;69.50;;;;;;5048927;28;44220;-71
2022/05/20 04:21:52;;;;;;;1.77;1.77;;;23.00;70.10;;;;;;5049175;28;43910;-70
2022/05/20 04:24:21;;;;;;;1.70;1.70;;;22.90;72.00;;;;;;5048595;28;43984;-71
2022/05/20 04:26:49;;;;;;;1.90;1.90;;;23.00;71.70;;;;;;5048725;28;44128;-71
2022/05/20 04:29:17;;;;;;;1.90;1.90;;;23.10;71.20;;;;;;5030411;28;44063;-71
2022/05/20 04:31:46;;;;;;;1.80;1.80;;;23.20;70.60;;;;;;5048976;28;44380;-70
2022/05/20 04:34:14;;;;;;;1.80;1.80;;;23.20;70.50;;;;;;5048733;28;43870;-71
2022/05/20 04:36:42;;;;;;;2.20;2.13;;;23.10;70.30;;;;;;5047517;28;44062;-71
2022/05/20 04:39:10;;;;;;;1.80;1.80;;;23.00;70.50;;;;;;5048208;28;44006;-70
2022/05/20 04:47:14;;;;;;;1.90;1.90;;;22.80;70.10;;;;;;5048261;28;43830;-71
2022/05/20 04:49:42;;;;;;;1.70;1.70;;;22.70;70.70;;;;;;5048324;28;43336;-71
2022/05/20 04:52:10;;;;;;;1.70;1.70;;;22.70;72.80;;;;;;5048715;28;43329;-71
2022/05/20 04:54:49;;;;;;;1.80;1.80;;;22.80;72.70;;;;;;5048025;28;44024;-70
2022/05/20 04:57:30;;;;;;;1.80;1.80;;;23.00;71.70;;;;;;5048267;28;43341;-71
2022/05/20 05:00:00;;;;;;;1.93;1.93;;;23.20;70.60;;;;;;5048135;28;43953;-71
2022/05/20 05:02:28;;;;;;;1.80;1.80;;;23.30;70.20;;;;;;5048551;28;43976;-72
2022/05/20 05:04:56;;;;;;;1.93;1.87;;;23.40;70.10;;;;;;5047860;28;43913;-70
2022/05/20 05:07:24;;;;;;;1.80;1.80;;;23.30;69.70;;;;;;5029854;28;44739;-70
2022/05/20 05:09:53;;;;;;;2.00;2.00;;;23.20;69.90;;;;;;5048115;28;43814;-71
2022/05/20 05:12:21;;;;;;;2.00;2.00;;;23.10;70.20;;;;;;5030064;28;43904;-70
2022/05/20 05:14:51;;;;;;;2.13;2.13;;;23.00;69.70;;;;;;5029529;28;47070;-71
2022/05/20 05:18:09;;;;;;;1.70;1.70;;;22.90;69.80;;;;;;5047988;28;43882;-71
2022/05/20 05:20:10;;;;;;;1.70;1.70;;;22.90;72.10;;;;;;5047733;28;44000;-71
2022/05/20 05:22:39;;;;;;;1.60;1.60;;;22.90;72.00;;;;;;5048294;28;43393;-71
2022/05/20 05:25:09;;;;;;;1.90;1.80;;;23.00;71.60;;;;;;5047279;28;43667;-70
2022/05/20 05:27:37;;;;;;;2.17;2.10;;;23.10;70.80;;;;;;5047523;28;44012;-72
2022/05/20 05:30:08;;;;;;;1.60;1.60;;;23.10;70.60;;;;;;5047830;28;43405;-71
2022/05/20 05:32:36;;;;;;;2.00;2.00;;;23.00;70.80;;;;;;5047767;28;43965;-71
2022/05/20 05:35:04;;;;;;;1.73;1.73;;;22.90;70.50;;;;;;5028936;28;45448;-71
2022/05/20 05:37:33;;;;;;;1.90;1.90;;;22.80;70.00;;;;;;5047771;28;43985;-72
2022/05/20 05:40:02;;;;;;;1.90;1.90;;;22.80;70.10;;;;;;5029353;28;43866;-70
2022/05/20 05:42:30;;;;;;;1.80;1.80;;;22.70;70.20;;;;;;5047555;28;44056;-70
2022/05/20 05:44:59;;;;;;;2.87;1.73;;;22.70;71.00;;;;;;5047410;28;44008;-70
2022/05/20 05:47:31;;;;;;;1.80;1.80;;;22.70;73.00;;;;;;5047315;28;43827;-72
2022/05/20 05:50:00;;;;;;;1.87;1.87;;;22.80;72.70;;;;;;5047565;28;43443;-70
2022/05/20 05:52:28;;;;;;;1.90;1.90;;;23.00;71.60;;;;;;5047735;28;43907;-70
2022/05/20 05:54:56;;;;;;;1.63;1.63;;;23.10;71.10;;;;;;5047136;28;43976;-69
2022/05/20 05:57:24;;;;;;;1.60;1.60;;;23.30;70.30;;;;;;5047158;28;44073;-71
2022/05/20 05:59:52;;;;;;;1.97;1.90;;;23.30;70.00;;;;;;5047481;28;43376;-71
2022/05/20 06:02:21;;;;;;;1.70;1.70;;;23.20;69.90;;;;;;5047890;28;43922;-71
2022/05/20 06:04:50;;;;;;;2.03;2.03;;;23.10;69.90;;;;;;5047216;28;44096;-70
2022/05/20 06:07:18;;;;;;;2.00;2.00;;;23.00;70.10;;;;;;5047198;28;43968;-71
2022/05/20 06:09:46;;;;;;;1.80;1.80;;;22.90;69.80;;;;;;5047461;28;43873;-71
2022/05/20 06:12:14;;;;;;;2.07;2.07;;;22.80;70.00;;;;;;5047504;28;43374;-70
2022/05/20 06:14:42;;;;;;;1.90;1.90;;;22.80;72.90;;;;;;5046796;28;43902;-71
2022/05/20 06:17:12;;;;;;;2.00;2.00;;;22.80;72.20;;;;;;5046932;28;43894;-70
2022/05/20 06:19:40;;;;;;;2.00;1.90;;;23.00;71.80;;;;;;5047049;28;43990;-71
2022/05/20 06:22:09;;;;;;;1.97;1.97;;;23.00;71.30;;;;;;5029049;28;44079;-70
2022/05/20 06:24:37;;;;;;;2.20;2.10;;;23.00;71.10;;;;;;5046331;28;43946;-71
2022/05/20 06:27:05;;;;;;;2.00;2.00;;;23.00;70.80;;;;;;5046867;28;44016;-71
2022/05/20 06:29:33;;;;;;;2.00;2.00;;;22.90;70.80;;;;;;5046820;28;43364;-70
2022/05/20 06:32:01;;;;;;;1.77;1.77;;;22.80;70.20;;;;;;5047429;28;43838;-72
2022/05/20 06:39:48;;;;;;;2.13;2.03;;;22.70;70.20;;;;;;5046369;28;43894;-70
2022/05/20 06:40:09;;;;;;;2.33;2.23;;;22.60;70.50;;;;;;5046874;28;43990;-71
2022/05/20 06:42:37;;;;;;;2.17;2.10;;;22.60;72.60;;;;;;5046849;28;43862;-71
2022/05/20 06:45:06;;;;;;;2.20;2.20;;;22.70;73.50;;;;;;5046600;28;44040;-71
2022/05/20 06:47:34;;;;;;;2.10;2.00;;;22.80;72.20;;;;;;5046912;28;43890;-71
2022/05/20 06:50:03;;;;;;;2.30;2.20;;;23.00;71.30;;;;;;5046673;28;44044;-70
2022/05/20 06:52:32;;;;;;;2.37;2.27;;;23.20;70.80;;;;;;5047027;28;43960;-71
2022/05/20 06:55:08;;;;;;;2.70;2.60;;;23.20;70.50;;;;;;5028183;28;46163;-72
2022/05/20 06:57:37;;;;;;;3.00;2.80;;;23.10;70.20;;;;;;5046217;28;43925;-71
2022/05/20 07:00:07;;;;;;;2.57;2.47;;;23.10;70.40;;;;;;5046644;28;43998;-71
2022/05/20 07:02:35;;;;;;;2.30;2.30;;;22.90;70.50;;;;;;5049917;28;43425;-71
2022/05/20 07:05:04;;;;;;;2.80;2.60;;;22.90;70.00;;;;;;5049907;28;43706;-70
2022/05/20 07:07:34;;;;;;;2.10;2.10;;;22.80;70.10;;;;;;5049879;28;43484;-71
2022/05/20 07:10:03;;;;;;;2.30;2.30;;;22.70;72.00;;;;;;5049923;28;43973;-70
2022/05/20 07:12:31;;;;;;;2.67;2.50;;;22.70;72.30;;;;;;5050094;28;43890;-71
2022/05/20 07:15:01;;;;;;;2.90;2.70;;;22.80;71.60;;;;;;5049734;28;44716;-71
2022/05/20 07:17:34;;;;;;;2.87;2.60;;;22.90;71.20;;;;;;5031621;28;45058;-71
2022/05/20 07:20:03;;;;;;;2.83;2.67;;;22.90;71.20;;;;;;5050134;28;44008;-72
2022/05/20 07:22:31;;;;;;;3.33;2.60;;;22.90;70.90;;;;;;5050253;28;43863;-71
2022/05/20 07:25:00;;;;;;;2.90;2.57;;;22.80;70.70;;;;;;5049732;28;43921;-71
2022/05/20 07:27:29;;;;;;;2.67;2.57;;;22.80;70.40;;;;;;5049311;28;44158;-71
2022/05/20 07:29:58;;;;;;;2.40;2.30;;;22.70;70.40;;;;;;5049564;28;43954;-70
2022/05/20 07:32:26;;;;;;;2.40;2.30;;;22.60;70.40;;;;;;5050081;28;44233;-71
2022/05/20 07:34:54;;;;;;;2.53;2.43;;;22.60;70.60;;;;;;5030956;28;46830;-72
2022/05/20 07:37:22;;;;;;;2.50;2.40;;;22.60;72.20;;;;;;5049528;28;44115;-71
2022/05/20 07:39:50;;;;;;;2.63;2.43;;;22.60;72.90;;;;;;5049574;28;43976;-70
2022/05/20 07:42:19;;;;;;;2.57;2.47;;;22.70;72.20;;;;;;5049898;28;43910;-71
2022/05/20 07:44:50;;;;;;;2.67;2.57;;;22.90;71.40;;;;;;5049326;28;44019;-71
2022/05/20 07:47:19;;;;;;;2.77;2.57;;;23.10;70.90;;;;;;5031143;28;45084;-71
2022/05/20 07:49:47;;;;;;;2.60;2.40;;;23.20;70.30;;;;;;5049509;28;44008;-72
2022/05/20 07:53:19;;;;;;;2.87;2.70;;;23.20;70.30;;;;;;5051144;28;43827;-71
2022/05/20 07:55:04;;;;;;;2.77;2.67;;;23.10;70.20;;;;;;5048898;28;44671;-71
2022/05/20 07:57:33;;;;;;;2.50;2.40;;;23.00;70.10;;;;;;5049110;28;44094;-71
2022/05/20 08:00:02;;;;;;;2.27;2.17;;;22.90;69.70;;;;;;5049236;28;43964;-71
2022/05/20 08:02:39;;;;;;;2.20;2.10;;;22.80;69.80;;;;;;5046282;28;44016;-71
2022/05/20 08:05:13;;;;;;;2.40;2.20;;;22.80;72.50;;;;;;5049044;28;44488;-71
2022/05/20 08:07:44;;;;;;;2.47;2.37;;;22.80;72.20;;;;;;5030389;28;44911;-71
2022/05/20 08:10:13;;;;;;;2.70;2.60;;;22.90;71.60;;;;;;5049060;28;43972;-71
2022/05/20 08:12:45;;;;;;;2.40;2.30;;;22.90;71.30;;;;;;5049100;28;44081;-72
2022/05/20 08:15:13;;;;;;;2.57;2.43;;;23.00;71.10;;;;;;5048780;28;44979;-71
2022/05/20 08:17:42;;;;;;;2.60;2.50;;;22.90;71.10;;;;;;5048925;28;44020;-70
2022/05/20 08:20:13;;;;;;;2.60;2.50;;;22.80;70.00;;;;;;5049071;28;44040;-71
2022/05/20 08:22:41;;;;;;;2.40;2.30;;;22.80;70.10;;;;;;5049264;28;43456;-70
2022/05/20 08:25:09;;;;;;;2.63;2.53;;;22.70;70.20;;;;;;5048786;28;45117;-71
2022/05/20 08:27:37;;;;;;;2.43;2.30;;;22.70;70.40;;;;;;5048667;28;44043;-70
2022/05/20 08:30:10;;;;;;;2.43;2.37;;;22.60;70.40;;;;;;5030452;28;43392;-70
2022/05/20 08:32:38;;;;;;;2.53;2.33;;;22.60;72.10;;;;;;5048658;28;43456;-71
2022/05/20 08:35:06;;;;;;;2.53;2.43;;;22.60;72.60;;;;;;5030234;28;45700;-72
2022/05/20 08:37:38;;;;;;;2.30;2.20;;;22.80;72.20;;;;;;5048295;28;44450;-72
2022/05/20 08:40:10;;;;;;;2.00;1.90;;;22.90;71.40;;;;;;5048820;28;43858;-70
2022/05/20 08:42:38;;;;;;;2.53;2.43;;;23.10;71.00;;;;;;5048605;28;43360;-71
2022/05/20 08:45:08;;;;;;;2.10;2.10;;;23.10;70.50;;;;;;5048432;28;43839;-71
2022/05/20 08:47:39;;;;;;;2.60;2.50;;;23.10;70.60;;;;;;5048185;28;43476;-70
2022/05/20 08:50:12;;;;;;;2.47;2.27;;;23.00;70.70;;;;;;5048489;28;43898;-71
2022/05/20 08:52:40;;;;;;;2.03;2.03;;;23.00;70.20;;;;;;5048782;28;44010;-71
2022/05/20 08:55:08;;;;;;;2.13;2.03;;;22.90;69.90;;;;;;5048158;28;43950;-71
2022/05/20 08:57:39;;;;;;;2.37;2.30;;;22.80;70.00;;;;;;5048012;28;43413;-72
2022/05/20 09:00:10;;;;;;;2.13;2.13;;;22.70;71.00;;;;;;5048321;28;43957;-71
2022/05/20 09:02:38;;;;;;;2.70;2.60;;;22.70;72.30;;;;;;5048238;28;44019;-71
2022/05/20 09:05:16;;;;;;;2.33;2.23;;;22.80;73.00;;;;;;5029540;28;46117;-71
2022/05/20 09:07:58;;;;;;;2.40;2.30;;;22.90;71.50;;;;;;5029944;28;43961;-72
2022/05/20 09:10:32;;;;;;;2.70;2.50;;;22.90;71.20;;;;;;5029582;28;43380;-71
2022/05/20 09:13:06;;;;;;;2.20;2.20;;;22.90;71.20;;;;;;5048285;28;43938;-70
2022/05/20 09:15:46;;;;;;;2.30;2.20;;;22.80;71.30;;;;;;5047968;28;44985;-71
2022/05/20 09:18:20;;;;;;;2.37;2.27;;;22.80;70.40;;;;;;5048093;28;44037;-71
2022/05/20 09:20:49;;;;;;;2.20;2.20;;;22.70;70.50;;;;;;5048362;28;43943;-72
2022/05/20 09:23:20;;;;;;;2.20;2.10;;;22.70;70.70;;;;;;5029446;28;44339;-70
2022/05/20 09:25:55;;;;;;;2.13;2.13;;;22.60;70.70;;;;;;5047909;28;43934;-71
2022/05/20 09:28:29;;;;;;;2.27;2.27;;;22.60;72.20;;;;;;5047622;28;43974;-71
2022/05/20 09:31:06;;;;;;;2.23;2.17;;;22.60;72.70;;;;;;5047665;28;44028;-71
2022/05/20 09:33:35;;;;;;;2.13;2.13;;;22.80;72.40;;;;;;5047679;28;43815;-71
2022/05/20 09:36:04;;;;;;;2.30;2.20;;;23.00;71.70;;;;;;5028938;28;45951;-71
2022/05/20 09:38:34;;;;;;;2.10;2.10;;;23.10;70.90;;;;;;5047709;28;44016;-72
2022/05/20 09:41:10;;;;;;;2.10;2.10;;;23.10;70.80;;;;;;5047640;28;43818;-71
2022/05/20 09:43:40;;;;;;;2.30;2.20;;;23.10;70.70;;;;;;5029397;28;44231;-71
2022/05/20 09:46:25;;;;;;;2.33;2.13;;;23.00;70.60;;;;;;5047312;28;44326;-72
2022/05/20 09:48:58;;;;;;;2.30;2.20;;;23.00;70.40;;;;;;5029055;28;45119;-71
2022/05/20 09:51:29;;;;;;;2.23;2.13;;;22.90;70.20;;;;;;5047362;28;44007;-71
2022/05/20 09:54:09;;;;;;;2.70;2.60;;;22.80;70.30;;;;;;5029332;28;43872;-71
2022/05/20 09:56:40;;;;;;;2.30;2.10;;;22.70;71.80;;;;;;5047372;28;43922;-71
2022/05/20 09:59:16;;;;;;;2.27;2.27;;;22.80;72.40;;;;;;5047399;28;43426;-72
2022/05/20 10:01:52;;;;;;;2.20;2.10;;;22.80;71.90;;;;;;5047594;28;44023;-72
2022/05/20 10:04:24;;;;;;;3.70;2.00;;;22.90;71.60;;;;;;5047641;28;43967;-70
2022/05/20 10:06:54;;;;;;;2.40;2.30;;;22.90;71.60;;;;;;5047188;28;43769;-71
2022/05/20 10:09:34;;;;;;;2.10;2.10;;;22.90;71.20;;;;;;5028906;28;44637;-71
2022/05/20 10:12:04;;;;;;;2.20;2.10;;;22.80;70.60;;;;;;5047012;28;43309;-71
2022/05/20 10:14:38;;;;;;;2.97;2.27;;;22.80;70.50;;;;;;5047434;28;43951;-71
2022/05/20 10:17:09;;;;;;;1.87;1.87;;;22.70;70.60;;;;;;5047146;28;43931;-71
2022/05/20 10:19:42;;;;;;;2.30;2.20;;;22.60;70.60;;;;;;5047148;28;43835;-71
2022/05/20 10:22:18;;;;;;;1.90;1.90;;;22.60;70.80;;;;;;5047321;28;43404;-71
2022/05/20 10:24:49;;;;;;;2.50;2.30;;;22.50;72.50;;;;;;5047723;28;43946;-72
2022/05/20 10:27:20;;;;;;;2.30;2.20;;;22.60;72.50;;;;;;5046964;28;43922;-71
2022/05/20 10:32:44;;;;;;;2.10;2.10;;;23.00;71.80;;;;;;5028592;28;43388;-71
2022/05/20 10:35:15;;;;;;;2.20;2.10;;;23.10;71.20;;;;;;5047341;28;43832;-71
2022/05/20 10:38:01;;;;;;;2.10;2.00;;;23.10;71.00;;;;;;5050417;28;44181;-70
2022/05/20 10:40:39;;;;;;;2.20;2.10;;;23.00;70.70;;;;;;5050329;28;43986;-71
2022/05/20 10:43:28;;;;;;;2.10;2.10;;;22.90;70.40;;;;;;5050207;28;43425;-72
2022/05/20 10:49:01;;;;;;;2.33;2.23;;;22.80;70.40;;;;;;5050180;28;44958;-71
2022/05/20 10:51:47;;;;;;;2.17;2.17;;;22.70;70.60;;;;;;5049922;28;43325;-70
2022/05/20 10:54:39;;;;;;;2.33;2.33;;;22.60;72.50;;;;;;5049392;28;44031;-72
2022/05/20 10:57:28;;;;;;;1.90;1.80;;;22.70;72.60;;;;;;5050515;28;44054;-71
2022/05/20 11:00:05;;;;;;;1.87;1.87;;;22.90;72.00;;;;;;5047877;28;43918;-71
2022/05/20 11:02:58;;;;;;;2.00;2.00;;;22.90;71.80;;;;;;5049922;28;44154;-72
2022/05/20 11:05:41;;;;;;;1.93;1.93;;;22.90;71.20;;;;;;5050016;28;43989;-72
2022/05/20 11:08:14;;;;;;;1.70;1.70;;;22.80;70.70;;;;;;5050460;28;43431;-72
2022/05/20 11:11:15;;;;;;;2.03;1.93;;;22.80;70.60;;;;;;5049910;28;43666;-71
2022/05/20 11:13:55;;;;;;;1.93;1.93;;;22.70;70.70;;;;;;5046964;28;43961;-71
2022/05/20 11:16:31;;;;;;;1.90;1.90;;;22.60;70.80;;;;;;5049870;28;43815;-71
2022/05/20 11:19:13;;;;;;;2.20;2.20;;;22.60;70.90;;;;;;5050156;28;43897;-72
2022/05/20 11:21:54;;;;;;;2.00;2.00;;;22.50;71.80;;;;;;5049694;28;44023;-71
2022/05/20 11:24:30;;;;;;;1.90;1.90;;;22.60;72.80;;;;;;5049544;28;44008;-71
2022/05/20 11:27:05;;;;;;;1.90;1.90;;;22.70;72.60;;;;;;5050053;28;43959;-72
2022/05/20 11:29:47;;;;;;;2.00;1.90;;;22.90;71.90;;;;;;5050126;28;43946;-72
2022/05/20 11:32:18;;;;;;;2.10;2.00;;;23.10;71.20;;;;;;5049700;28;44836;-71
2022/05/20 11:35:18;;;;;;;1.93;1.93;;;23.20;70.80;;;;;;5049823;28;43387;-72
2022/05/20 11:37:58;;;;;;;1.90;1.90;;;23.10;70.50;;;;;;4968624;28;43991;-72
2022/05/20 11:40:32;;;;;;;2.00;1.90;;;23.10;70.50;;;;;;5039240;28;43406;-71
2022/05/20 11:43:12;;;;;;;2.00;2.00;;;23.00;70.40;;;;;;5049160;28;43965;-71
2022/05/20 11:45:43;;;;;;;1.93;1.80;;;22.90;71.00;;;;;;5049457;28;43349;-72
2022/05/20 11:48:25;;;;;;;1.83;1.83;;;22.80;70.40;;;;;;5049152;28;43966;-71
2022/05/20 11:51:24;;;;;;;1.80;1.80;;;22.70;72.20;;;;;;5049828;28;43337;-71
2022/05/20 11:53:55;;;;;;;1.80;1.80;;;22.80;72.40;;;;;;5049110;28;43771;-71
2022/05/20 11:56:28;;;;;;;2.00;2.00;;;22.90;71.70;;;;;;5049366;28;43979;-71
2022/05/20 11:58:59;;;;;;;2.00;2.00;;;23.00;71.80;;;;;;5030986;28;43906;-71
2022/05/20 12:01:27;;;;;;;2.10;2.00;;;22.90;71.10;;;;;;5049659;28;43388;-72
2022/05/20 12:04:07;;;;;;;1.67;1.67;;;22.90;70.60;;;;;;5048910;28;43801;-71
2022/05/20 12:06:37;;;;;;;1.90;1.90;;;22.80;70.50;;;;;;5049153;28;43758;-72
2022/05/20 12:09:06;;;;;;;1.90;1.90;;;22.70;70.50;;;;;;5049387;28;43934;-72
2022/05/20 12:11:37;;;;;;;1.90;1.90;;;22.60;70.70;;;;;;5048516;28;44282;-72
2022/05/20 12:14:07;;;;;;;1.90;1.90;;;22.60;70.90;;;;;;5048615;28;43962;-71
2022/05/20 12:16:35;;;;;;;2.03;2.03;;;22.60;71.10;;;;;;5030610;28;44748;-70
2022/05/20 12:24:39;;;;;;;1.73;1.73;;;22.90;72.40;;;;;;5048720;28;44009;-72
2022/05/20 12:27:12;;;;;;;2.10;2.00;;;23.00;71.20;;;;;;5030500;28;44756;-70
2022/05/20 12:29:59;;;;;;;1.83;1.83;;;23.10;70.90;;;;;;5049005;28;43321;-71
2022/05/20 12:32:52;;;;;;;2.00;2.00;;;23.10;70.90;;;;;;5036593;28;43456;-72
2022/05/20 12:35:26;;;;;;;1.73;1.73;;;23.10;70.90;;;;;;5048522;28;43858;-72
2022/05/20 12:38:24;;;;;;;2.17;2.07;;;22.90;70.20;;;;;;5048597;28;43979;-71
2022/05/20 12:41:03;;;;;;;1.97;1.90;;;22.90;70.30;;;;;;5048694;28;43889;-71
2022/05/20 12:43:56;;;;;;;1.80;1.80;;;22.70;70.40;;;;;;5030315;28;44159;-71
2022/05/20 12:46:36;;;;;;;1.80;1.80;;;22.70;72.20;;;;;;5017020;28;44037;-71
2022/05/20 12:49:04;;;;;;;1.97;1.97;;;22.70;72.40;;;;;;5048581;28;43972;-71
2022/05/20 12:51:41;;;;;;;1.97;1.97;;;22.80;72.00;;;;;;5048291;28;43981;-71
2022/05/20 12:54:16;;;;;;;1.93;1.93;;;22.90;71.80;;;;;;5048817;28;43747;-71
2022/05/20 12:56:45;;;;;;;1.90;1.90;;;22.90;71.50;;;;;;5029808;28;45545;-71
2022/05/20 12:59:14;;;;;;;2.10;2.00;;;22.90;71.20;;;;;;5047310;28;43929;-71
2022/05/20 13:01:49;;;;;;;1.77;1.77;;;22.80;70.60;;;;;;5048092;28;44008;-71
2022/05/20 13:04:17;;;;;;;2.00;2.00;;;22.70;70.60;;;;;;5048669;28;43249;-73
2022/05/20 13:06:47;;;;;;;1.93;1.93;;;22.70;70.90;;;;;;5048451;28;44699;-72
2022/05/20 13:09:22;;;;;;;1.80;1.80;;;22.60;70.90;;;;;;5048291;28;43763;-70
2022/05/20 13:11:52;;;;;;;1.90;1.90;;;22.60;71.10;;;;;;5048112;28;43929;-71
2022/05/20 13:14:29;;;;;;;2.43;1.77;;;22.60;72.90;;;;;;5048328;28;43962;-71
2022/05/20 13:16:57;;;;;;;1.73;1.73;;;22.70;72.90;;;;;;5047910;28;44835;-72
2022/05/20 13:19:28;;;;;;;1.90;1.90;;;22.90;72.50;;;;;;5048113;28;43881;-72
2022/05/20 13:21:59;;;;;;;1.87;1.77;;;23.00;71.60;;;;;;5048019;28;43920;-71
2022/05/20 13:24:28;;;;;;;1.83;1.83;;;23.10;70.70;;;;;;5048022;28;43358;-71
2022/05/20 13:27:05;;;;;;;1.70;1.70;;;23.20;70.60;;;;;;5047983;28;43953;-72
2022/05/20 13:29:33;;;;;;;1.80;1.70;;;23.10;70.60;;;;;;5044778;28;44020;-71
2022/05/20 13:32:19;;;;;;;1.70;1.70;;;23.00;70.50;;;;;;5047696;28;44005;-71
2022/05/20 13:34:49;;;;;;;1.50;1.50;;;22.90;70.10;;;;;;5048108;28;43957;-72
2022/05/20 13:37:20;;;;;;;1.80;1.80;;;22.90;70.30;;;;;;5048013;28;43928;-71